Terminal Aerodrome Forecast
Issued by NWS

Home | Current Version | Previous Version | Text Only | Print | Product List | Glossary On
Versions: 1 2 3 4 5 6 7 8 9 10 11 12 13 14 15 16 17 18 19 20 21 22 23 24 25 26 27 28 29 30 31 32 33 34 35 36 37 38 39 40 41 42 43 44
000
FTAK31 PANC 280712 AAA
TAFADL
TAF AMD
PADL 280712Z 2807/2906 14008KT P6SM -RA SCT009 BKN020 OVC035
      TEMPO 2807/2811 BKN009
     FM281500 11006KT P6SM SCT008 OVC035
     FM282100 05008KT P6SM SCT035 BKN050=

USA.gov is the U.S. government's official web portal to all federal, state and local government web resources and services.